createdAt,value
2022-10-31T00:00:30.262Z,17.75
2022-10-31T00:02:32.511Z,14.32
2022-10-31T00:04:34.618Z,10.85
2022-10-31T00:06:36.731Z,8.63
2022-10-31T00:08:38.874Z,15.07
2022-10-31T00:10:43.313Z,12.55
2022-10-31T00:12:45.355Z,22.23
2022-10-31T00:14:47.399Z,15.85
2022-10-31T00:16:49.404Z,11.45
2022-10-31T00:18:53.485Z,13.27
2022-10-31T00:21:01.739Z,14.52
2022-10-31T00:23:05.179Z,12.77
2022-10-31T00:25:07.589Z,20.42
2022-10-31T00:27:09.746Z,18.08
2022-10-31T00:29:11.854Z,11.27
2022-10-31T00:31:14.589Z,13.18
2022-10-31T00:33:16.924Z,13.30
2022-10-31T00:35:19.135Z,15.88
2022-10-31T00:37:21.165Z,8.35
2022-10-31T00:39:23.255Z,19.55
2022-10-31T00:41:25.870Z,9.27
2022-10-31T00:43:28.047Z,12.73
2022-10-31T00:45:30.127Z,11.27
2022-10-31T00:47:32.198Z,13.82
2022-10-31T00:49:34.370Z,19.25
2022-10-31T00:51:36.565Z,11.57
2022-10-31T00:53:38.587Z,12.27
2022-10-31T00:55:41.014Z,15.88
2022-10-31T00:57:43.107Z,12.75
2022-10-31T00:59:45.206Z,13.55
2022-10-31T01:01:47.413Z,13.63
2022-10-31T01:03:49.643Z,17.35
2022-10-31T01:05:58.467Z,10.30
2022-10-31T01:08:00.815Z,13.65
2022-10-31T01:10:02.782Z,14.70
2022-10-31T01:12:05.351Z,10.57
2022-10-31T01:14:07.578Z,7.32
2022-10-31T01:16:12.842Z,11.38
2022-10-31T01:18:14.855Z,15.82
2022-10-31T01:20:17.665Z,15.20
2022-10-31T01:22:19.740Z,10.65
2022-10-31T01:24:21.962Z,14.18
2022-10-31T01:26:27.395Z,8.02
2022-10-31T01:28:29.418Z,15.40
2022-10-31T01:30:31.428Z,17.80
2022-10-31T01:32:33.642Z,12.65
2022-10-31T01:34:35.838Z,12.60
2022-10-31T01:36:39.404Z,14.18
2022-10-31T01:38:41.657Z,19.77
2022-10-31T01:40:43.756Z,21.48
2022-10-31T01:42:45.846Z,15.07
2022-10-31T01:44:52.483Z,14.40
2022-10-31T01:47:01.174Z,9.48
2022-10-31T01:49:10.924Z,26.02
2022-10-31T01:51:15.339Z,17.35
2022-10-31T01:53:22.950Z,9.27
2022-10-31T01:55:34.855Z,19.17
2022-10-31T01:57:39.734Z,12.93
2022-10-31T01:59:47.057Z,8.57
2022-10-31T02:01:52.652Z,14.23
2022-10-31T02:03:56.946Z,9.98
2022-10-31T02:05:59.734Z,15.43
2022-10-31T02:08:05.666Z,10.43
2022-10-31T02:10:08.531Z,16.92
2022-10-31T02:12:13.326Z,15.82
2022-10-31T02:14:15.407Z,13.88
2022-10-31T02:16:17.553Z,13.57
2022-10-31T02:18:21.206Z,12.45
2022-10-31T02:20:26.455Z,13.20
2022-10-31T02:22:36.188Z,13.52
2022-10-31T02:24:44.361Z,17.88
2022-10-31T02:26:52.871Z,9.27
2022-10-31T02:28:59.583Z,7.90
2022-10-31T02:31:08.049Z,17.75
2022-10-31T02:33:14.534Z,14.35
2022-10-31T02:35:22.845Z,15.95
2022-10-31T02:37:35.564Z,15.48
2022-10-31T02:39:49.206Z,11.68
2022-10-31T02:41:57.612Z,14.25
2022-10-31T02:44:03.165Z,15.27
2022-10-31T02:46:09.964Z,14.40
2022-10-31T02:48:16.853Z,12.32
2022-10-31T02:50:27.071Z,15.13
2022-10-31T02:52:31.236Z,13.07
2022-10-31T02:54:33.311Z,14.90
2022-10-31T02:56:35.338Z,12.38
2022-10-31T02:58:41.709Z,13.25
2022-10-31T03:00:49.724Z,16.98
2022-10-31T03:02:59.163Z,12.13
2022-10-31T03:05:14.460Z,14.45
2022-10-31T03:07:21.131Z,13.50
2022-10-31T03:09:31.067Z,8.48
2022-10-31T03:11:44.531Z,17.50
2022-10-31T03:13:53.148Z,19.50
2022-10-31T03:16:02.028Z,13.38
2022-10-31T03:18:11.070Z,11.43
2022-10-31T03:20:13.044Z,20.25
2022-10-31T03:22:20.854Z,15.20
2022-10-31T03:24:25.763Z,13.18
2022-10-31T03:26:27.888Z,14.00
2022-10-31T03:28:35.635Z,14.30
2022-10-31T03:30:40.102Z,16.90
2022-10-31T03:32:48.886Z,11.00
2022-10-31T03:34:52.282Z,16.63
2022-10-31T03:37:04.963Z,13.23
2022-10-31T03:39:10.936Z,14.48
2022-10-31T03:41:18.567Z,12.75
2022-10-31T03:43:27.449Z,16.73
2022-10-31T03:45:32.144Z,18.15
2022-10-31T03:47:36.325Z,20.75
2022-10-31T03:49:39.524Z,19.83
2022-10-31T03:51:50.018Z,17.17
2022-10-31T03:53:56.460Z,11.10
2022-10-31T03:56:05.011Z,21.75
2022-10-31T03:58:12.876Z,22.02
2022-10-31T04:00:17.436Z,18.17
2022-10-31T04:02:23.767Z,19.88
2022-10-31T04:04:27.654Z,18.60
2022-10-31T04:06:32.141Z,11.13
2022-10-31T04:08:39.388Z,13.73
2022-10-31T04:10:43.853Z,17.05
2022-10-31T04:12:51.824Z,12.18
2022-10-31T04:14:54.276Z,11.55
2022-10-31T04:16:56.400Z,20.83
2022-10-31T04:18:58.402Z,19.25
2022-10-31T04:21:02.782Z,16.98
2022-10-31T04:23:07.237Z,15.55
2022-10-31T04:25:10.853Z,16.88
2022-10-31T04:27:12.889Z,21.30
2022-10-31T04:29:14.808Z,16.25
2022-10-31T04:31:16.715Z,18.80
2022-10-31T04:33:18.922Z,30.92
2022-10-31T04:35:20.903Z,12.40
2022-10-31T04:37:22.817Z,21.13
2022-10-31T04:39:26.775Z,12.00
2022-10-31T04:41:28.883Z,16.27
2022-10-31T04:43:30.847Z,19.88
2022-10-31T04:45:32.743Z,23.50
2022-10-31T04:47:34.937Z,13.98
2022-10-31T04:49:36.890Z,19.10
2022-10-31T04:51:38.834Z,9.63
2022-10-31T04:53:40.908Z,14.30
2022-10-31T04:55:42.849Z,15.93
2022-10-31T04:57:46.561Z,15.75
2022-10-31T04:59:48.478Z,13.70
2022-10-31T05:01:50.542Z,26.13
2022-10-31T05:03:52.739Z,12.90
2022-10-31T05:05:54.665Z,13.07
2022-10-31T05:07:57.152Z,14.48
2022-10-31T05:09:59.173Z,21.30
2022-10-31T05:12:01.055Z,24.48
2022-10-31T05:14:03.006Z,10.85
2022-10-31T05:16:05.363Z,22.13
2022-10-31T05:18:07.332Z,15.88
2022-10-31T05:20:10.182Z,22.67
2022-10-31T05:22:12.108Z,17.60
2022-10-31T05:24:14.001Z,22.88
2022-10-31T05:26:15.933Z,23.65
2022-10-31T05:28:17.819Z,15.32
2022-10-31T05:30:24.059Z,15.07
2022-10-31T05:32:25.943Z,15.55
2022-10-31T05:34:27.808Z,16.98
2022-10-31T05:36:29.889Z,14.05
2022-10-31T05:38:31.935Z,22.13
2022-10-31T05:40:33.884Z,20.95
2022-10-31T05:42:36.021Z,15.95
2022-10-31T05:44:39.200Z,14.85
2022-10-31T05:46:41.205Z,20.35
2022-10-31T05:48:43.125Z,10.63
2022-10-31T05:50:45.012Z,15.88
2022-10-31T05:52:46.946Z,13.45
2022-10-31T05:54:48.862Z,19.48
2022-10-31T05:56:50.724Z,12.82
2022-10-31T05:58:52.643Z,16.40
2022-10-31T06:00:54.625Z,17.15
2022-10-31T06:03:01.634Z,21.92
2022-10-31T06:05:04.029Z,19.92
2022-10-31T06:07:06.087Z,17.92
2022-10-31T06:09:08.051Z,11.63
2022-10-31T06:11:09.962Z,16.48
2022-10-31T06:13:13.393Z,21.25
2022-10-31T06:15:19.800Z,16.23
2022-10-31T06:17:25.365Z,22.73
2022-10-31T06:19:27.318Z,16.77
2022-10-31T06:21:29.274Z,14.82
2022-10-31T06:23:31.230Z,20.35
2022-10-31T06:25:34.342Z,20.15
2022-10-31T06:27:36.262Z,20.15
2022-10-31T06:29:38.222Z,19.85
2022-10-31T06:31:40.219Z,19.08
2022-10-31T06:33:43.584Z,16.25
2022-10-31T06:35:47.943Z,19.48
2022-10-31T06:37:54.474Z,15.60
2022-10-31T06:39:56.407Z,13.93
2022-10-31T06:41:58.342Z,21.75
2022-10-31T06:44:04.910Z,23.42
2022-10-31T06:46:10.108Z,18.70
2022-10-31T06:48:17.140Z,17.92
2022-10-31T06:50:20.622Z,20.77
2022-10-31T06:52:24.471Z,22.02
2022-10-31T06:54:26.431Z,15.95
2022-10-31T06:56:28.342Z,18.60
2022-10-31T06:58:30.349Z,15.93
2022-10-31T07:00:32.838Z,25.38
2022-10-31T07:02:34.801Z,13.15
2022-10-31T07:04:36.825Z,23.90
2022-10-31T07:06:38.898Z,12.23
2022-10-31T07:08:41.082Z,16.90
2022-10-31T07:10:51.487Z,25.90
2022-10-31T07:12:57.665Z,21.13
2022-10-31T07:14:59.986Z,18.40
2022-10-31T07:17:01.937Z,15.25
2022-10-31T07:19:03.903Z,15.73
2022-10-31T07:21:06.296Z,22.05
2022-10-31T07:23:10.727Z,13.10
2022-10-31T07:25:13.202Z,23.60
2022-10-31T07:27:15.186Z,10.30
2022-10-31T07:29:17.148Z,16.67
2022-10-31T07:31:19.285Z,17.90
2022-10-31T07:33:21.686Z,11.88
2022-10-31T07:35:26.828Z,17.90
2022-10-31T07:37:29.104Z,28.35
2022-10-31T07:39:31.124Z,18.17
2022-10-31T07:41:33.266Z,12.18
2022-10-31T07:43:35.400Z,12.38
2022-10-31T07:45:37.463Z,15.48
2022-10-31T07:47:42.806Z,13.00
2022-10-31T07:49:44.873Z,18.33
2022-10-31T07:51:46.928Z,19.45
2022-10-31T07:53:48.911Z,16.77
2022-10-31T07:55:50.891Z,24.38
2022-10-31T07:57:58.632Z,17.23
2022-10-31T08:00:00.850Z,13.02
2022-10-31T08:02:02.866Z,15.25
2022-10-31T08:04:05.083Z,13.88
2022-10-31T08:06:07.558Z,19.10
2022-10-31T08:08:10.202Z,20.40
2022-10-31T08:10:12.314Z,15.15
2022-10-31T08:12:14.303Z,10.55
2022-10-31T08:14:16.303Z,24.40
2022-10-31T08:16:18.498Z,20.05
2022-10-31T08:18:20.581Z,14.70
2022-10-31T08:20:23.122Z,16.13
2022-10-31T08:22:25.152Z,13.27
2022-10-31T08:24:27.340Z,20.30
2022-10-31T08:26:29.634Z,12.95
2022-10-31T08:28:31.934Z,22.60
2022-10-31T08:30:36.544Z,10.80
2022-10-31T08:32:38.642Z,13.13
2022-10-31T08:34:40.857Z,11.57
2022-10-31T08:36:46.113Z,18.35
2022-10-31T08:38:48.991Z,14.77
2022-10-31T08:40:51.214Z,19.95
2022-10-31T08:43:01.766Z,11.38
2022-10-31T08:45:04.498Z,11.95
2022-10-31T08:47:06.624Z,13.65
2022-10-31T08:49:09.037Z,12.32
2022-10-31T08:51:11.931Z,12.30
2022-10-31T08:53:16.520Z,8.65
2022-10-31T08:55:18.703Z,9.77
2022-10-31T08:57:21.154Z,14.07
2022-10-31T08:59:23.478Z,15.13
2022-10-31T09:01:25.650Z,14.80
2022-10-31T09:03:30.934Z,20.40
2022-10-31T09:05:33.724Z,12.40
2022-10-31T09:07:36.688Z,15.15
2022-10-31T09:09:38.882Z,17.63
2022-10-31T09:11:40.983Z,17.80
2022-10-31T09:13:42.984Z,13.15
2022-10-31T09:15:46.810Z,12.93
2022-10-31T09:17:49.707Z,14.55
2022-10-31T09:19:51.939Z,16.73
2022-10-31T09:21:55.260Z,13.55
2022-10-31T09:23:57.497Z,14.40
2022-10-31T09:26:01.797Z,13.88
2022-10-31T09:28:05.961Z,11.45
2022-10-31T09:30:08.727Z,19.05
2022-10-31T09:32:10.781Z,17.77
2022-10-31T09:34:12.795Z,12.25
2022-10-31T09:36:14.864Z,12.00
2022-10-31T09:38:20.860Z,10.60
2022-10-31T09:40:26.570Z,8.30
2022-10-31T09:42:38.624Z,10.27
2022-10-31T09:44:53.328Z,15.45
2022-10-31T09:47:00.554Z,7.40
2022-10-31T09:49:06.257Z,7.80
2022-10-31T09:51:12.714Z,12.48
2022-10-31T09:53:25.103Z,19.08
2022-10-31T09:55:36.295Z,11.07
2022-10-31T09:57:39.851Z,11.32
2022-10-31T09:59:44.666Z,10.45
2022-10-31T10:01:53.356Z,10.75
2022-10-31T10:04:01.756Z,10.90
2022-10-31T10:06:08.297Z,17.30
2022-10-31T10:08:17.999Z,7.57
2022-10-31T10:10:30.365Z,15.65
2022-10-31T10:12:41.427Z,8.38
2022-10-31T10:14:50.602Z,12.23
2022-10-31T10:17:03.586Z,10.55
2022-10-31T10:19:08.354Z,5.32
2022-10-31T10:21:19.490Z,7.78
2022-10-31T10:23:34.373Z,8.75
2022-10-31T10:25:41.059Z,9.82
2022-10-31T10:27:47.541Z,8.32
2022-10-31T10:29:54.248Z,8.55
2022-10-31T10:31:59.467Z,14.30
2022-10-31T10:34:11.754Z,11.02
2022-10-31T10:36:19.565Z,9.13
2022-10-31T10:38:25.186Z,5.88
2022-10-31T10:40:29.145Z,14.38
2022-10-31T10:42:34.583Z,13.77
2022-10-31T10:44:44.929Z,22.17
2022-10-31T10:46:59.667Z,9.48
2022-10-31T10:49:05.164Z,9.05
2022-10-31T10:51:25.734Z,8.32
2022-10-31T10:54:01.188Z,9.07
2022-10-31T10:56:07.118Z,6.65
2022-10-31T10:58:10.901Z,7.68
2022-10-31T11:00:18.377Z,8.98
2022-10-31T11:02:24.838Z,9.45
2022-10-31T11:04:30.122Z,12.18
2022-10-31T11:06:32.348Z,6.43
2022-10-31T11:08:36.346Z,5.47
2022-10-31T11:10:38.999Z,5.72
2022-10-31T11:12:42.406Z,6.40
2022-10-31T11:14:50.672Z,5.53
2022-10-31T11:17:10.012Z,8.07
2022-10-31T11:19:18.874Z,8.35
2022-10-31T11:21:25.205Z,9.35
2022-10-31T11:23:30.071Z,10.77
2022-10-31T11:25:32.296Z,8.52
2022-10-31T11:27:34.480Z,8.95
2022-10-31T11:29:38.015Z,8.02
2022-10-31T11:31:41.000Z,10.52
2022-10-31T11:33:48.077Z,9.80
2022-10-31T11:35:53.497Z,7.07
2022-10-31T11:38:03.573Z,12.02
2022-10-31T11:40:08.009Z,10.48
2022-10-31T11:42:10.341Z,11.48
2022-10-31T11:44:19.155Z,6.25
2022-10-31T11:46:31.973Z,7.95
2022-10-31T11:48:34.150Z,6.15
2022-10-31T11:50:40.652Z,5.50
2022-10-31T11:52:42.847Z,12.77
2022-10-31T11:54:48.602Z,10.00
2022-10-31T11:56:50.779Z,7.25
2022-10-31T11:58:57.459Z,9.40
2022-10-31T12:00:59.840Z,9.20
2022-10-31T12:03:15.433Z,6.13
2022-10-31T12:05:33.887Z,6.30
2022-10-31T12:07:35.992Z,10.65
2022-10-31T12:09:39.362Z,5.82
2022-10-31T12:11:51.760Z,7.10
2022-10-31T12:14:09.551Z,6.13
2022-10-31T12:16:24.975Z,5.78
2022-10-31T12:18:49.598Z,8.57
2022-10-31T12:21:06.611Z,3.50
2022-10-31T12:23:25.690Z,3.88
2022-10-31T12:25:48.116Z,9.07
2022-10-31T12:28:05.123Z,3.80
2022-10-31T12:30:25.575Z,9.52
2022-10-31T12:32:30.412Z,7.43
2022-10-31T12:34:49.384Z,6.25
2022-10-31T12:37:06.504Z,5.25
2022-10-31T12:39:25.511Z,6.10
2022-10-31T12:41:34.711Z,3.95
2022-10-31T12:43:46.389Z,5.00
2022-10-31T12:45:59.994Z,7.03
2022-10-31T12:48:19.994Z,4.15
2022-10-31T12:50:26.300Z,4.03
2022-10-31T12:52:28.854Z,6.32
2022-10-31T12:54:32.220Z,3.95
2022-10-31T12:56:47.175Z,6.70
2022-10-31T12:58:57.292Z,10.75
2022-10-31T13:01:22.663Z,3.13
2022-10-31T13:03:40.432Z,5.07
2022-10-31T13:05:46.356Z,4.60
2022-10-31T13:07:59.253Z,1.95
2022-10-31T13:10:17.947Z,4.63
2022-10-31T13:12:24.097Z,3.78
2022-10-31T13:14:35.461Z,6.13
2022-10-31T13:16:41.531Z,6.65
2022-10-31T13:18:56.206Z,2.67
2022-10-31T13:21:03.120Z,4.57
2022-10-31T13:23:49.268Z,5.43
2022-10-31T13:25:52.454Z,5.88
2022-10-31T13:28:01.124Z,7.43
2022-10-31T13:30:07.605Z,6.97
2022-10-31T13:32:11.858Z,11.82
2022-10-31T13:34:27.702Z,6.35
2022-10-31T13:36:38.538Z,9.00
2022-10-31T13:38:55.291Z,5.68
2022-10-31T13:41:01.542Z,4.82
2022-10-31T13:43:18.552Z,4.97
2022-10-31T13:45:23.329Z,3.10
2022-10-31T13:47:29.761Z,6.45
2022-10-31T13:49:32.213Z,6.22
2022-10-31T13:51:36.579Z,10.93
2022-10-31T13:53:43.882Z,5.18
2022-10-31T13:55:48.593Z,6.07
2022-10-31T13:57:50.661Z,3.35
2022-10-31T13:59:57.337Z,7.65
2022-10-31T14:02:03.385Z,7.18
2022-10-31T14:04:19.195Z,3.67
2022-10-31T14:06:39.111Z,7.85
2022-10-31T14:08:49.350Z,10.02
2022-10-31T14:10:54.369Z,2.92
2022-10-31T14:13:27.910Z,5.68
2022-10-31T14:15:30.133Z,8.80
2022-10-31T14:17:40.995Z,3.88
2022-10-31T14:19:45.590Z,4.63
2022-10-31T14:21:49.514Z,4.70
2022-10-31T14:23:55.086Z,3.72
2022-10-31T14:26:17.531Z,9.88
2022-10-31T14:28:24.011Z,6.65
2022-10-31T14:30:28.474Z,3.00
2022-10-31T14:32:31.379Z,9.02
2022-10-31T14:34:38.007Z,5.30
2022-10-31T14:36:56.450Z,8.25
2022-10-31T14:39:12.941Z,5.65
2022-10-31T14:41:22.510Z,7.18
2022-10-31T14:43:49.614Z,7.15
2022-10-31T14:46:06.725Z,4.63
2022-10-31T14:48:25.636Z,7.53
2022-10-31T14:50:45.023Z,7.47
2022-10-31T14:52:51.650Z,3.08
2022-10-31T14:54:56.807Z,6.03
2022-10-31T14:57:15.566Z,8.50
2022-10-31T14:59:22.378Z,4.57
2022-10-31T15:01:29.995Z,5.93
2022-10-31T15:03:44.427Z,4.30
2022-10-31T15:05:58.032Z,10.38
2022-10-31T15:08:00.685Z,10.10
2022-10-31T15:10:07.930Z,5.45
2022-10-31T15:12:25.144Z,5.93
2022-10-31T15:14:32.341Z,3.72
2022-10-31T15:16:38.147Z,5.97
2022-10-31T15:18:53.678Z,5.43
2022-10-31T15:20:57.986Z,6.82
2022-10-31T15:23:01.415Z,9.82
2022-10-31T15:25:06.588Z,5.63
2022-10-31T15:27:14.716Z,9.95
2022-10-31T15:29:20.061Z,5.45
2022-10-31T15:31:22.277Z,8.02
2022-10-31T15:33:27.203Z,10.27
2022-10-31T15:35:31.283Z,3.22
2022-10-31T15:37:33.470Z,3.90
2022-10-31T15:39:35.637Z,9.20
2022-10-31T15:41:54.139Z,10.93
2022-10-31T15:44:01.729Z,6.32
2022-10-31T15:46:05.256Z,7.03
2022-10-31T15:48:18.699Z,8.50
2022-10-31T15:50:24.456Z,6.00
2022-10-31T15:52:38.455Z,5.43
2022-10-31T15:54:49.979Z,8.30
2022-10-31T15:56:53.553Z,6.07
2022-10-31T15:58:58.764Z,6.18
2022-10-31T16:01:03.684Z,9.80
2022-10-31T16:03:16.236Z,8.00
2022-10-31T16:05:20.724Z,7.03
2022-10-31T16:07:24.098Z,11.13
2022-10-31T16:09:26.549Z,5.78
2022-10-31T16:11:34.659Z,8.27
2022-10-31T16:13:39.474Z,7.68
2022-10-31T16:15:59.332Z,9.88
2022-10-31T16:18:13.154Z,7.47
2022-10-31T16:20:27.959Z,5.32
2022-10-31T16:22:34.685Z,7.55
2022-10-31T16:24:47.622Z,8.63
2022-10-31T16:26:52.186Z,6.18
2022-10-31T16:29:04.707Z,10.77
2022-10-31T16:31:15.782Z,8.32
2022-10-31T16:33:32.645Z,12.20
2022-10-31T16:35:38.510Z,10.95
2022-10-31T16:37:41.567Z,8.30
2022-10-31T16:39:43.759Z,3.33
2022-10-31T16:41:50.657Z,9.07
2022-10-31T16:43:54.147Z,13.23
2022-10-31T16:45:56.561Z,4.88
2022-10-31T16:48:06.842Z,7.50
2022-10-31T16:50:16.971Z,9.73
2022-10-31T16:52:19.575Z,9.30
2022-10-31T16:54:21.773Z,10.48
2022-10-31T16:56:34.697Z,9.75
2022-10-31T16:58:37.433Z,7.78
2022-10-31T17:00:39.884Z,6.65
2022-10-31T17:02:42.651Z,6.90
2022-10-31T17:04:45.383Z,6.07
2022-10-31T17:06:48.048Z,5.85
2022-10-31T17:08:50.135Z,9.38
2022-10-31T17:10:55.183Z,5.78
2022-10-31T17:12:58.616Z,8.90
2022-10-31T17:15:01.787Z,7.15
2022-10-31T17:17:04.131Z,7.10
2022-10-31T17:19:06.454Z,9.23
2022-10-31T17:21:18.526Z,11.07
2022-10-31T17:23:20.852Z,5.82
2022-10-31T17:25:27.520Z,9.85
2022-10-31T17:27:29.576Z,8.68
2022-10-31T17:29:31.819Z,10.27
2022-10-31T17:31:37.054Z,7.75
2022-10-31T17:33:39.143Z,11.48
2022-10-31T17:35:42.785Z,8.77
2022-10-31T17:37:45.951Z,8.20
2022-10-31T17:39:48.778Z,11.10
2022-10-31T17:41:52.226Z,6.75
2022-10-31T17:43:58.106Z,8.60
2022-10-31T17:46:01.677Z,14.95
2022-10-31T17:48:04.143Z,10.18
2022-10-31T17:50:07.576Z,10.82
2022-10-31T17:52:09.953Z,10.13
2022-10-31T17:54:12.397Z,11.18
2022-10-31T17:56:15.136Z,10.98
2022-10-31T17:58:17.373Z,15.73
2022-10-31T18:00:24.573Z,11.18
2022-10-31T18:02:27.176Z,10.10
2022-10-31T18:04:29.460Z,8.05
2022-10-31T18:06:31.930Z,9.02
2022-10-31T18:08:38.570Z,14.48
2022-10-31T18:10:43.402Z,14.60
2022-10-31T18:12:45.669Z,18.30
2022-10-31T18:14:51.003Z,13.18
2022-10-31T18:16:53.355Z,10.75
2022-10-31T18:19:01.567Z,12.30
2022-10-31T18:21:04.643Z,11.00
2022-10-31T18:23:07.155Z,14.38
2022-10-31T18:25:09.867Z,14.05
2022-10-31T18:27:12.176Z,13.68
2022-10-31T18:29:15.120Z,15.43
2022-10-31T18:31:17.578Z,13.82
2022-10-31T18:33:20.974Z,11.85
2022-10-31T18:35:23.306Z,13.48
2022-10-31T18:37:25.615Z,19.27
2022-10-31T18:39:28.738Z,12.77
2022-10-31T18:41:30.773Z,18.10
2022-10-31T18:43:33.920Z,14.18
2022-10-31T18:45:47.188Z,18.85
2022-10-31T18:47:52.241Z,14.32
2022-10-31T18:49:54.281Z,13.77
2022-10-31T18:51:56.763Z,15.38
2022-10-31T18:54:00.860Z,21.80
2022-10-31T18:56:07.873Z,22.30
2022-10-31T18:58:09.943Z,15.40
2022-10-31T19:00:12.714Z,18.88
2022-10-31T19:02:15.888Z,15.30
2022-10-31T19:04:18.117Z,21.52
2022-10-31T19:06:20.113Z,18.52
2022-10-31T19:08:22.471Z,19.00
2022-10-31T19:10:24.812Z,19.55
2022-10-31T19:12:26.856Z,19.88
2022-10-31T19:14:28.875Z,20.35
2022-10-31T19:16:31.050Z,22.15
2022-10-31T19:18:33.321Z,21.40
2022-10-31T19:20:38.251Z,20.33
2022-10-31T19:22:40.439Z,25.95
2022-10-31T19:24:42.472Z,21.60
2022-10-31T19:26:44.572Z,22.75
2022-10-31T19:28:46.552Z,22.38
2022-10-31T19:30:56.657Z,23.85
2022-10-31T19:32:58.918Z,28.27
2022-10-31T19:35:01.212Z,23.27
2022-10-31T19:37:03.593Z,26.85
2022-10-31T19:39:05.843Z,31.17
2022-10-31T19:41:11.946Z,21.52
2022-10-31T19:43:13.994Z,25.35
2022-10-31T19:45:16.272Z,25.30
2022-10-31T19:47:18.736Z,24.45
2022-10-31T19:49:20.901Z,22.83
2022-10-31T19:51:23.335Z,23.30
2022-10-31T19:53:25.278Z,22.38
2022-10-31T19:55:27.128Z,21.42
2022-10-31T19:57:48.767Z,23.42
2022-10-31T19:59:52.161Z,24.83
2022-10-31T20:01:54.414Z,23.90
2022-10-31T20:03:57.018Z,26.38
2022-10-31T20:06:02.265Z,25.73
2022-10-31T20:08:04.926Z,23.33
2022-10-31T20:10:08.892Z,20.67
2022-10-31T20:12:10.941Z,17.30
2022-10-31T20:14:15.114Z,28.27
2022-10-31T20:16:18.347Z,28.80
2022-10-31T20:18:20.608Z,24.38
2022-10-31T20:20:22.812Z,23.83
2022-10-31T20:22:24.844Z,25.80
2022-10-31T20:24:26.927Z,21.55
2022-10-31T20:26:30.280Z,25.05
2022-10-31T20:28:33.748Z,27.65
2022-10-31T20:30:37.469Z,19.63
2022-10-31T20:32:39.741Z,27.67
2022-10-31T20:34:42.055Z,22.35
2022-10-31T20:36:44.271Z,24.40
2022-10-31T20:38:46.241Z,18.58
2022-10-31T20:40:48.368Z,22.90
2022-10-31T20:42:50.978Z,19.88
2022-10-31T20:44:52.968Z,15.80
2022-10-31T20:46:55.112Z,18.35
2022-10-31T20:48:57.658Z,15.98
2022-10-31T20:51:01.822Z,13.10
2022-10-31T20:53:04.156Z,20.10
2022-10-31T20:55:07.238Z,21.02
2022-10-31T20:57:09.491Z,13.57
2022-10-31T20:59:12.671Z,13.77
2022-10-31T21:01:20.929Z,9.82
2022-10-31T21:03:23.059Z,10.07
2022-10-31T21:05:25.192Z,9.32
2022-10-31T21:07:27.250Z,8.63
2022-10-31T21:09:29.274Z,11.63
2022-10-31T21:11:31.588Z,9.73
2022-10-31T21:13:40.630Z,8.38
2022-10-31T21:15:43.357Z,8.38
2022-10-31T21:17:45.708Z,20.45
2022-10-31T21:19:49.799Z,10.55
2022-10-31T21:21:52.092Z,7.70
2022-10-31T21:23:56.193Z,9.38
2022-10-31T21:25:58.383Z,14.45
2022-10-31T21:28:00.965Z,9.07
2022-10-31T21:30:03.384Z,9.65
2022-10-31T21:32:05.523Z,6.65
2022-10-31T21:34:08.302Z,10.98
2022-10-31T21:36:11.104Z,13.50
2022-10-31T21:38:13.190Z,9.38
2022-10-31T21:40:15.180Z,9.40
2022-10-31T21:42:20.544Z,8.88
2022-10-31T21:44:23.650Z,9.45
2022-10-31T21:46:29.709Z,12.68
2022-10-31T21:48:32.138Z,16.58
2022-10-31T21:50:35.347Z,12.88
2022-10-31T21:52:37.366Z,15.10
2022-10-31T21:54:39.501Z,11.13
2022-10-31T21:56:42.114Z,14.18
2022-10-31T21:58:44.048Z,13.95
2022-10-31T22:00:46.071Z,13.75
2022-10-31T22:02:48.031Z,10.90
2022-10-31T22:04:51.580Z,14.18
2022-10-31T22:06:53.757Z,8.75
2022-10-31T22:08:57.720Z,8.75
2022-10-31T22:11:04.959Z,9.65
2022-10-31T22:13:07.094Z,8.43
2022-10-31T22:15:09.562Z,7.75
2022-10-31T22:17:11.902Z,10.07
2022-10-31T22:19:15.110Z,7.57
2022-10-31T22:21:20.710Z,11.27
2022-10-31T22:23:22.655Z,8.32
2022-10-31T22:25:24.541Z,8.77
2022-10-31T22:27:26.431Z,8.43
2022-10-31T22:29:29.060Z,8.07
2022-10-31T22:31:32.162Z,6.95
2022-10-31T22:33:34.327Z,8.25
2022-10-31T22:35:38.584Z,7.00
2022-10-31T22:37:40.526Z,5.80
2022-10-31T22:39:42.335Z,6.30
2022-10-31T22:41:44.184Z,8.82
2022-10-31T22:43:46.310Z,7.70
2022-10-31T22:45:55.686Z,11.15
2022-10-31T22:47:57.608Z,9.38
2022-10-31T22:49:59.409Z,12.02
2022-10-31T22:52:03.577Z,9.60
2022-10-31T22:54:07.959Z,11.60
2022-10-31T22:56:13.209Z,8.15
2022-10-31T22:58:15.051Z,6.40
2022-10-31T23:00:18.573Z,6.13
2022-10-31T23:02:20.494Z,9.85
2022-10-31T23:04:22.504Z,8.95
2022-10-31T23:06:27.245Z,8.88
2022-10-31T23:08:30.774Z,8.45
2022-10-31T23:10:34.019Z,9.10
2022-10-31T23:12:45.380Z,6.47
2022-10-31T23:14:47.240Z,5.80
2022-10-31T23:16:52.095Z,14.82
2022-10-31T23:18:53.869Z,7.20
2022-10-31T23:20:55.724Z,4.68
2022-10-31T23:22:57.654Z,3.10
2022-10-31T23:24:59.601Z,4.18
2022-10-31T23:27:07.818Z,7.97
2022-10-31T23:29:10.752Z,7.15
2022-10-31T23:31:12.810Z,8.90
2022-10-31T23:33:14.708Z,9.35
2022-10-31T23:35:16.719Z,10.98
2022-10-31T23:37:20.740Z,5.82
2022-10-31T23:39:25.076Z,12.98
2022-10-31T23:41:27.246Z,12.20
2022-10-31T23:43:29.198Z,8.35
2022-10-31T23:45:33.958Z,11.73
2022-10-31T23:47:38.334Z,12.20
2022-10-31T23:49:42.762Z,7.03
2022-10-31T23:51:44.740Z,8.75
2022-10-31T23:53:47.164Z,5.15
2022-10-31T23:55:49.099Z,16.63
2022-10-31T23:57:51.340Z,8.68
2022-10-31T23:59:53.336Z,14.23
